createdAt,value
2022-08-08T00:00:52.140Z,98291.56
2022-08-08T00:03:13.158Z,98291.00
2022-08-08T00:06:07.178Z,98288.97
2022-08-08T00:08:49.208Z,98293.38
2022-08-08T00:11:46.475Z,98294.38
2022-08-08T00:14:59.944Z,98296.34
2022-08-08T00:17:58.594Z,98300.16
2022-08-08T00:20:44.577Z,98306.41
2022-08-08T00:23:42.822Z,98305.44
2022-08-08T00:26:29.306Z,98307.03
2022-08-08T00:29:15.040Z,98300.78
2022-08-08T00:32:21.409Z,98293.00
2022-08-08T00:35:18.650Z,98296.50
2022-08-08T00:38:31.426Z,98303.31
2022-08-08T00:42:09.180Z,98304.81
2022-08-08T00:45:27.284Z,98309.97
2022-08-08T00:48:36.485Z,98302.91
2022-08-08T00:51:51.102Z,98301.13
2022-08-08T00:55:06.506Z,98306.91
2022-08-08T00:58:31.927Z,98302.25
2022-08-08T01:01:29.268Z,98303.72
2022-08-08T01:05:09.430Z,98303.56
2022-08-08T01:08:46.770Z,98302.84
2022-08-08T01:12:04.366Z,98313.78
2022-08-08T01:15:37.234Z,98305.53
2022-08-08T01:19:13.863Z,98314.97
2022-08-08T01:22:47.002Z,98317.00
2022-08-08T01:26:11.378Z,98322.75
2022-08-08T01:29:35.362Z,98320.38
2022-08-08T01:33:24.270Z,98312.97
2022-08-08T01:36:53.329Z,98315.56
2022-08-08T01:39:41.761Z,98309.22
2022-08-08T01:42:36.204Z,98313.47
2022-08-08T01:45:34.308Z,98318.59
2022-08-08T01:48:30.778Z,98312.59
2022-08-08T01:52:44.081Z,98318.22
2022-08-08T01:55:46.330Z,98316.22
2022-08-08T01:58:12.585Z,98323.13
2022-08-08T02:00:57.557Z,98318.66
2022-08-08T02:03:56.090Z,98327.72
2022-08-08T02:07:01.970Z,98330.13
2022-08-08T02:10:03.920Z,98327.41
2022-08-08T02:12:53.422Z,98330.00
2022-08-08T02:15:38.508Z,98327.72
2022-08-08T02:18:18.949Z,98321.31
2022-08-08T02:21:20.254Z,98322.19
2022-08-08T02:24:01.490Z,98321.75
2022-08-08T02:26:46.254Z,98315.06
2022-08-08T02:29:56.330Z,98312.25
2022-08-08T02:33:01.558Z,98309.84
2022-08-08T02:36:12.589Z,98316.91
2022-08-08T02:39:40.766Z,98306.59
2022-08-08T02:44:38.225Z,98311.75
2022-08-08T02:46:58.526Z,98310.72
2022-08-08T02:50:18.218Z,98311.84
2022-08-08T02:53:38.216Z,98315.22
2022-08-08T02:56:48.817Z,98314.63
2022-08-08T03:00:33.556Z,98316.91
2022-08-08T03:05:04.163Z,98313.59
2022-08-08T03:08:01.469Z,98318.53
2022-08-08T03:11:47.433Z,98326.41
2022-08-08T03:16:00.662Z,98330.59
2022-08-08T03:18:08.826Z,98334.56
2022-08-08T03:20:47.058Z,98331.22
2022-08-08T03:23:39.676Z,98332.34
2022-08-08T03:26:33.581Z,98331.84
2022-08-08T03:29:54.638Z,98330.63
2022-08-08T03:32:33.053Z,98336.03
2022-08-08T03:35:09.547Z,98340.28
2022-08-08T03:37:59.370Z,98342.09
2022-08-08T03:40:37.727Z,98339.75
2022-08-08T03:43:15.856Z,98343.03
2022-08-08T03:46:06.716Z,98353.97
2022-08-08T03:49:27.978Z,98355.50
2022-08-08T03:51:50.709Z,98348.41
2022-08-08T03:54:40.547Z,98359.91
2022-08-08T03:58:29.945Z,98357.50
2022-08-08T04:00:18.250Z,98363.38
2022-08-08T04:02:57.659Z,98362.81
2022-08-08T04:05:36.631Z,98360.81
2022-08-08T04:08:32.980Z,98366.00
2022-08-08T04:11:11.152Z,98369.38
2022-08-08T04:14:03.043Z,98372.28
2022-08-08T04:16:38.935Z,98370.44
2022-08-08T04:19:23.950Z,98373.88
2022-08-08T04:21:58.487Z,98370.53
2022-08-08T04:24:31.912Z,98379.16
2022-08-08T04:27:10.330Z,98378.13
2022-08-08T04:29:55.445Z,98385.78
2022-08-08T04:32:38.108Z,98386.81
2022-08-08T04:35:14.703Z,98379.31
2022-08-08T04:37:49.151Z,98384.31
2022-08-08T04:40:24.258Z,98389.75
2022-08-08T04:43:01.179Z,98403.44
2022-08-08T04:45:36.628Z,98401.91
2022-08-08T04:48:09.958Z,98400.81
2022-08-08T04:50:45.957Z,98400.41
2022-08-08T04:54:27.250Z,98406.25
2022-08-08T04:56:12.858Z,98405.53
2022-08-08T04:58:48.452Z,98409.97
2022-08-08T05:01:25.418Z,98414.69
2022-08-08T05:04:12.696Z,98412.28
2022-08-08T05:06:47.349Z,98405.91
2022-08-08T05:09:26.131Z,98414.50
2022-08-08T05:12:03.317Z,98421.72
2022-08-08T05:14:36.422Z,98419.47
2022-08-08T05:17:12.562Z,98409.84
2022-08-08T05:20:12.535Z,98410.47
2022-08-08T05:22:41.744Z,98413.38
2022-08-08T05:25:14.896Z,98409.69
2022-08-08T05:27:48.689Z,98423.28
2022-08-08T05:30:28.594Z,98423.09
2022-08-08T05:33:03.825Z,98412.13
2022-08-08T05:35:39.691Z,98424.00
2022-08-08T05:38:30.461Z,98412.31
2022-08-08T05:41:06.079Z,98416.78
2022-08-08T05:44:03.869Z,98421.75
2022-08-08T05:46:39.332Z,98418.38
2022-08-08T05:49:15.973Z,98427.81
2022-08-08T05:51:49.759Z,98430.44
2022-08-08T05:54:50.150Z,98421.03
2022-08-08T05:58:04.092Z,98419.22
2022-08-08T06:00:23.702Z,98425.13
2022-08-08T06:03:17.377Z,98422.16
2022-08-08T06:06:06.005Z,98417.44
2022-08-08T06:08:53.378Z,98421.38
2022-08-08T06:11:32.562Z,98424.13
2022-08-08T06:14:12.958Z,98428.75
2022-08-08T06:16:52.001Z,98422.44
2022-08-08T06:19:27.491Z,98426.38
2022-08-08T06:22:32.075Z,98423.44
2022-08-08T06:24:55.175Z,98429.38
2022-08-08T06:27:38.806Z,98434.69
2022-08-08T06:30:20.396Z,98432.50
2022-08-08T06:33:02.379Z,98438.94
2022-08-08T06:36:06.063Z,98433.22
2022-08-08T06:38:37.997Z,98428.13
2022-08-08T06:41:15.348Z,98434.44
2022-08-08T06:43:57.104Z,98439.66
2022-08-08T06:46:31.258Z,98438.78
2022-08-08T06:49:05.922Z,98435.41
2022-08-08T06:51:47.110Z,98439.03
2022-08-08T06:54:27.143Z,98427.53
2022-08-08T06:57:00.940Z,98426.72
2022-08-08T07:00:09.964Z,98433.78
2022-08-08T07:02:33.440Z,98431.38
2022-08-08T07:05:11.855Z,98435.72
2022-08-08T07:08:03.045Z,98436.63
2022-08-08T07:10:47.726Z,98438.41
2022-08-08T07:13:25.230Z,98436.66
2022-08-08T07:16:10.371Z,98448.00
2022-08-08T07:19:00.816Z,98446.09
2022-08-08T07:21:44.605Z,98446.06
2022-08-08T07:24:27.630Z,98445.13
2022-08-08T07:27:04.854Z,98449.56
2022-08-08T07:30:02.090Z,98443.31
2022-08-08T07:32:33.743Z,98440.31
2022-08-08T07:35:08.776Z,98437.28
2022-08-08T07:37:55.914Z,98438.19
2022-08-08T07:40:37.919Z,98442.25
2022-08-08T07:43:16.804Z,98436.66
2022-08-08T07:46:18.403Z,98448.03
2022-08-08T07:48:49.400Z,98446.78
2022-08-08T07:51:45.199Z,98451.63
2022-08-08T07:54:26.759Z,98451.38
2022-08-08T07:57:19.786Z,98451.03
2022-08-08T08:00:02.210Z,98447.84
2022-08-08T08:02:41.696Z,98443.22
2022-08-08T08:05:22.444Z,98453.34
2022-08-08T08:08:06.436Z,98453.50
2022-08-08T08:10:41.102Z,98451.94
2022-08-08T08:13:42.669Z,98460.63
2022-08-08T08:16:32.225Z,98454.09
2022-08-08T08:19:08.290Z,98450.63
2022-08-08T08:21:52.275Z,98452.97
2022-08-08T08:24:32.467Z,98445.41
2022-08-08T08:27:09.426Z,98457.09
2022-08-08T08:29:42.641Z,98444.63
2022-08-08T08:32:31.795Z,98441.06
2022-08-08T08:35:10.797Z,98438.69
2022-08-08T08:38:14.674Z,98448.31
2022-08-08T08:40:41.524Z,98448.53
2022-08-08T08:43:18.787Z,98448.38
2022-08-08T08:45:57.377Z,98449.69
2022-08-08T08:48:33.175Z,98442.75
2022-08-08T08:51:16.608Z,98448.25
2022-08-08T08:53:58.894Z,98440.19
2022-08-08T08:56:37.482Z,98451.09
2022-08-08T08:59:15.705Z,98451.03
2022-08-08T09:01:52.707Z,98450.50
2022-08-08T09:04:30.858Z,98443.38
2022-08-08T09:07:12.244Z,98445.50
2022-08-08T09:09:55.102Z,98451.63
2022-08-08T09:12:35.319Z,98441.13
2022-08-08T09:15:10.195Z,98453.31
2022-08-08T09:17:52.290Z,98443.72
2022-08-08T09:22:02.132Z,98451.63
2022-08-08T09:23:26.241Z,98440.78
2022-08-08T09:26:16.095Z,98435.59
2022-08-08T09:28:51.529Z,98451.06
2022-08-08T09:31:56.730Z,98444.22
2022-08-08T09:34:35.438Z,98447.41
2022-08-08T09:37:57.181Z,98442.69
2022-08-08T09:40:10.594Z,98447.63
2022-08-08T09:42:51.824Z,98444.31
2022-08-08T09:46:01.198Z,98449.44
2022-08-08T09:48:35.346Z,98430.94
2022-08-08T09:51:10.473Z,98431.59
2022-08-08T09:54:06.839Z,98431.69
2022-08-08T09:56:49.395Z,98423.97
2022-08-08T10:00:01.195Z,98429.88
2022-08-08T10:02:24.839Z,98426.44
2022-08-08T10:05:07.008Z,98430.41
2022-08-08T10:07:59.759Z,98413.25
2022-08-08T10:10:37.973Z,98404.63
2022-08-08T10:13:19.315Z,98425.66
2022-08-08T10:16:03.687Z,98429.00
2022-08-08T10:18:39.601Z,98415.91
2022-08-08T10:21:25.181Z,98416.66
2022-08-08T10:24:05.180Z,98418.25
2022-08-08T10:27:02.441Z,98429.50
2022-08-08T10:29:59.303Z,98431.66
2022-08-08T10:32:37.281Z,98414.09
2022-08-08T10:36:01.952Z,98438.75
2022-08-08T10:38:16.336Z,98428.16
2022-08-08T10:40:53.910Z,98419.50
2022-08-08T10:43:40.337Z,98421.31
2022-08-08T10:46:29.549Z,98419.22
2022-08-08T10:49:03.744Z,98416.59
2022-08-08T10:51:40.878Z,98419.25
2022-08-08T10:54:27.077Z,98414.88
2022-08-08T10:57:03.865Z,98413.81
2022-08-08T10:59:39.550Z,98413.22
2022-08-08T11:02:14.084Z,98419.34
2022-08-08T11:04:53.289Z,98415.88
2022-08-08T11:08:29.970Z,98414.81
2022-08-08T11:10:29.229Z,98404.13
2022-08-08T11:16:01.047Z,98407.97
2022-08-08T11:18:41.499Z,98395.44
2022-08-08T11:21:19.572Z,98405.09
2022-08-08T11:24:02.018Z,98406.22
2022-08-08T11:26:53.932Z,98403.63
2022-08-08T11:29:50.823Z,98403.00
2022-08-08T11:32:29.359Z,98386.19
2022-08-08T11:35:27.226Z,98392.41
2022-08-08T11:38:36.710Z,98392.34
2022-08-08T11:40:56.667Z,98387.06
2022-08-08T11:43:39.117Z,98396.03
2022-08-08T11:46:18.332Z,98392.53
2022-08-08T11:48:54.354Z,98395.19
2022-08-08T11:51:30.675Z,98397.78
2022-08-08T11:54:31.529Z,98385.44
2022-08-08T11:57:16.961Z,98373.19
2022-08-08T12:00:00.303Z,98372.28
2022-08-08T12:02:48.913Z,98363.53
2022-08-08T12:05:35.227Z,98365.97
2022-08-08T12:08:10.288Z,98367.75
2022-08-08T12:10:49.027Z,98377.38
2022-08-08T12:13:37.640Z,98366.13
2022-08-08T12:16:31.827Z,98364.34
2022-08-08T12:19:12.913Z,98367.75
2022-08-08T12:21:59.150Z,98364.09
2022-08-08T12:24:54.046Z,98371.31
2022-08-08T12:27:45.115Z,98363.53
2022-08-08T12:30:31.649Z,98360.94
2022-08-08T12:33:07.719Z,98353.84
2022-08-08T12:35:52.887Z,98353.91
2022-08-08T12:38:30.304Z,98351.28
2022-08-08T12:41:24.495Z,98350.31
2022-08-08T12:44:10.485Z,98337.16
2022-08-08T12:46:43.576Z,98350.19
2022-08-08T12:49:43.010Z,98345.84
2022-08-08T12:52:28.929Z,98343.13
2022-08-08T12:55:13.676Z,98346.63
2022-08-08T12:57:49.841Z,98340.50
2022-08-08T13:00:34.025Z,98345.81
2022-08-08T13:03:25.439Z,98343.94
2022-08-08T13:06:13.827Z,98355.44
2022-08-08T13:08:53.632Z,98351.81
2022-08-08T13:12:27.981Z,98336.06
2022-08-08T13:14:40.380Z,98344.91
2022-08-08T13:17:53.999Z,98338.81
2022-08-08T13:20:21.978Z,98340.63
2022-08-08T13:23:26.844Z,98332.50
2022-08-08T13:25:50.190Z,98324.63
2022-08-08T13:28:33.246Z,98330.75
2022-08-08T13:31:06.785Z,98328.94
2022-08-08T13:33:43.381Z,98327.97
2022-08-08T13:36:17.187Z,98321.94
2022-08-08T13:38:50.358Z,98309.72
2022-08-08T13:41:24.182Z,98329.06
2022-08-08T13:44:03.053Z,98317.81
2022-08-08T13:46:37.977Z,98313.19
2022-08-08T13:50:37.384Z,98323.72
2022-08-08T13:52:12.499Z,98319.38
2022-08-08T13:55:08.255Z,98309.69
2022-08-08T13:58:06.309Z,98314.06
2022-08-08T14:00:45.198Z,98304.44
2022-08-08T14:03:53.847Z,98300.94
2022-08-08T14:06:33.105Z,98302.53
2022-08-08T14:09:25.303Z,98299.84
2022-08-08T14:12:06.150Z,98308.66
2022-08-08T14:14:41.718Z,98302.56
2022-08-08T14:17:36.446Z,98300.97
2022-08-08T14:20:56.408Z,98294.06
2022-08-08T14:23:21.537Z,98295.00
2022-08-08T14:26:10.777Z,98295.84
2022-08-08T14:28:53.486Z,98291.44
2022-08-08T14:32:05.806Z,98283.53
2022-08-08T14:34:23.252Z,98280.91
2022-08-08T14:37:08.436Z,98281.50
2022-08-08T14:39:50.188Z,98279.63
2022-08-08T14:42:54.676Z,98284.75
2022-08-08T14:45:46.747Z,98288.44
2022-08-08T14:48:34.789Z,98290.91
2022-08-08T14:51:17.655Z,98280.50
2022-08-08T14:53:54.657Z,98283.28
2022-08-08T14:56:29.639Z,98279.03
2022-08-08T14:59:31.643Z,98279.94
2022-08-08T15:01:58.873Z,98275.63
2022-08-08T15:04:33.435Z,98281.84
2022-08-08T15:07:22.483Z,98279.06
2022-08-08T15:09:57.813Z,98274.59
2022-08-08T15:12:31.768Z,98270.13
2022-08-08T15:15:06.871Z,98271.03
2022-08-08T15:17:43.410Z,98273.47
2022-08-08T15:20:18.654Z,98270.91
2022-08-08T15:22:53.549Z,98267.53
2022-08-08T15:25:33.133Z,98271.91
2022-08-08T15:28:33.383Z,98270.09
2022-08-08T15:31:05.177Z,98271.94
2022-08-08T15:33:59.328Z,98272.88
2022-08-08T15:36:32.403Z,98265.13
2022-08-08T15:39:07.005Z,98275.47
2022-08-08T15:41:43.797Z,98271.16
2022-08-08T15:44:19.527Z,98262.28
2022-08-08T15:46:52.822Z,98272.94
2022-08-08T15:49:27.637Z,98265.59
2022-08-08T15:52:08.514Z,98254.94
2022-08-08T15:54:46.218Z,98270.88
2022-08-08T15:57:23.057Z,98269.31
2022-08-08T16:00:05.341Z,98269.34
2022-08-08T16:02:51.119Z,98267.47
2022-08-08T16:05:25.558Z,98273.72
2022-08-08T16:08:12.286Z,98270.31
2022-08-08T16:13:12.267Z,98262.41
2022-08-08T16:13:44.989Z,98268.31
2022-08-08T16:16:19.314Z,98263.09
2022-08-08T16:18:57.877Z,98265.88
2022-08-08T16:21:33.414Z,98265.66
2022-08-08T16:24:10.172Z,98273.75
2022-08-08T16:26:48.989Z,98272.03
2022-08-08T16:29:37.541Z,98271.28
2022-08-08T16:32:20.029Z,98269.50
2022-08-08T16:34:56.152Z,98272.19
2022-08-08T16:37:29.713Z,98275.75
2022-08-08T16:40:04.147Z,98264.38
2022-08-08T16:42:40.311Z,98264.47
2022-08-08T16:46:36.125Z,98266.25
2022-08-08T16:48:07.138Z,98271.56
2022-08-08T16:50:40.376Z,98257.47
2022-08-08T16:55:03.014Z,98278.59
2022-08-08T16:56:14.073Z,98273.38
2022-08-08T16:58:49.635Z,98272.38
2022-08-08T17:01:22.807Z,98270.72
2022-08-08T17:04:01.211Z,98271.66
2022-08-08T17:06:43.220Z,98266.41
2022-08-08T17:09:19.665Z,98264.72
2022-08-08T17:11:59.287Z,98266.47
2022-08-08T17:14:37.510Z,98275.28
2022-08-08T17:17:41.358Z,98278.84
2022-08-08T17:20:06.711Z,98272.72
2022-08-08T17:22:42.611Z,98279.72
2022-08-08T17:25:15.844Z,98281.53
2022-08-08T17:27:50.497Z,98289.44
2022-08-08T17:30:29.373Z,98289.44
2022-08-08T17:34:35.673Z,98289.47
2022-08-08T17:36:11.353Z,98291.22
2022-08-08T17:38:49.539Z,98289.50
2022-08-08T17:41:38.529Z,98293.00
2022-08-08T17:44:12.450Z,98302.66
2022-08-08T17:46:49.344Z,98301.81
2022-08-08T17:49:24.964Z,98304.44
2022-08-08T17:52:01.992Z,98308.81
2022-08-08T17:54:38.000Z,98304.47
2022-08-08T17:57:14.236Z,98307.09
2022-08-08T17:59:47.676Z,98310.63
2022-08-08T18:02:28.643Z,98321.16
2022-08-08T18:05:04.470Z,98317.66
2022-08-08T18:08:02.691Z,98318.50
2022-08-08T18:10:31.917Z,98322.03
2022-08-08T18:13:07.415Z,98315.06
2022-08-08T18:15:42.215Z,98319.44
2022-08-08T18:18:31.573Z,98319.41
2022-08-08T18:21:10.857Z,98317.69
2022-08-08T18:23:58.964Z,98325.56
2022-08-08T18:26:33.832Z,98326.41
2022-08-08T18:29:08.940Z,98333.38
2022-08-08T18:31:48.881Z,98333.34
2022-08-08T18:34:27.072Z,98339.44
2022-08-08T18:37:04.714Z,98334.16
2022-08-08T18:39:41.239Z,98337.59
2022-08-08T18:42:16.540Z,98342.75
2022-08-08T18:44:55.048Z,98346.22
2022-08-08T18:47:31.462Z,98350.53
2022-08-08T18:50:10.060Z,98352.22
2022-08-08T18:52:43.224Z,98358.28
2022-08-08T18:55:17.170Z,98356.44
2022-08-08T18:57:53.533Z,98364.19
2022-08-08T19:00:26.667Z,98371.91
2022-08-08T19:03:04.171Z,98367.50
2022-08-08T19:05:45.350Z,98375.25
2022-08-08T19:08:25.497Z,98384.69
2022-08-08T19:11:02.881Z,98384.56
2022-08-08T19:13:56.640Z,98390.50
2022-08-08T19:16:32.119Z,98399.06
2022-08-08T19:19:13.130Z,98399.81
2022-08-08T19:21:50.102Z,98397.88
2022-08-08T19:24:41.788Z,98404.69
2022-08-08T19:27:16.402Z,98407.09
2022-08-08T19:30:18.125Z,98408.59
2022-08-08T19:33:00.616Z,98414.56
2022-08-08T19:35:44.457Z,98416.91
2022-08-08T19:38:22.221Z,98429.88
2022-08-08T19:40:56.257Z,98426.25
2022-08-08T19:43:30.493Z,98427.91
2022-08-08T19:46:03.891Z,98432.09
2022-08-08T19:48:37.144Z,98440.59
2022-08-08T19:51:10.270Z,98437.94
2022-08-08T19:53:53.399Z,98436.78
2022-08-08T19:56:39.833Z,98445.38
2022-08-08T19:59:14.124Z,98443.47
2022-08-08T20:02:02.976Z,98443.31
2022-08-08T20:04:37.616Z,98441.34
2022-08-08T20:08:28.313Z,98441.22
2022-08-08T20:10:08.680Z,98447.03
2022-08-08T20:12:59.278Z,98448.38
2022-08-08T20:16:01.125Z,98452.59
2022-08-08T20:18:29.677Z,98444.59
2022-08-08T20:21:10.862Z,98450.56
2022-08-08T20:23:44.250Z,98449.53
2022-08-08T20:26:18.686Z,98454.44
2022-08-08T20:29:00.610Z,98461.19
2022-08-08T20:32:08.158Z,98460.97
2022-08-08T20:34:31.688Z,98455.63
2022-08-08T20:37:07.244Z,98455.38
2022-08-08T20:39:51.314Z,98456.22
2022-08-08T20:42:29.078Z,98454.38
2022-08-08T20:45:02.507Z,98456.84
2022-08-08T20:47:39.176Z,98456.56
2022-08-08T20:50:12.943Z,98466.69
2022-08-08T20:52:48.325Z,98459.66
2022-08-08T20:55:25.630Z,98459.44
2022-08-08T20:58:00.629Z,98457.50
2022-08-08T21:00:39.806Z,98462.63
2022-08-08T21:03:16.885Z,98462.50
2022-08-08T21:05:58.816Z,98461.53
2022-08-08T21:08:35.929Z,98462.25
2022-08-08T21:11:51.216Z,98467.13
2022-08-08T21:14:17.515Z,98465.19
2022-08-08T21:16:50.611Z,98468.72
2022-08-08T21:19:23.764Z,98469.19
2022-08-08T21:22:07.409Z,98469.38
2022-08-08T21:24:53.008Z,98466.00
2022-08-08T21:27:38.824Z,98469.28
2022-08-08T21:30:24.478Z,98476.09
2022-08-08T21:32:58.003Z,98470.81
2022-08-08T21:36:16.020Z,98481.19
2022-08-08T21:38:27.529Z,98481.88
2022-08-08T21:41:00.879Z,98473.91
2022-08-08T21:43:35.635Z,98473.91
2022-08-08T21:48:06.185Z,98479.88
2022-08-08T21:49:05.522Z,98472.63
2022-08-08T21:54:36.672Z,98480.28
2022-08-08T21:55:02.399Z,98470.16
2022-08-08T21:57:41.701Z,98469.00
2022-08-08T22:00:16.887Z,98468.13
2022-08-08T22:03:01.652Z,98476.59
2022-08-08T22:05:37.461Z,98487.47
2022-08-08T22:08:10.985Z,98479.59
2022-08-08T22:10:45.232Z,98488.72
2022-08-08T22:13:22.414Z,98480.72
2022-08-08T22:15:59.642Z,98482.19
2022-08-08T22:18:36.070Z,98486.66
2022-08-08T22:21:14.186Z,98486.75
2022-08-08T22:23:53.541Z,98489.25
2022-08-08T22:26:31.021Z,98495.13
2022-08-08T22:29:57.118Z,98491.56
2022-08-08T22:32:02.602Z,98481.28
2022-08-08T22:34:39.862Z,98486.13
2022-08-08T22:37:14.748Z,98495.25
2022-08-08T22:40:01.011Z,98485.56
2022-08-08T22:42:35.300Z,98485.44
2022-08-08T22:45:12.757Z,98491.34
2022-08-08T22:47:48.947Z,98487.75
2022-08-08T22:50:28.420Z,98490.66
2022-08-08T22:54:29.171Z,98487.16
2022-08-08T22:56:01.439Z,98486.28
2022-08-08T22:58:35.282Z,98483.53
2022-08-08T23:01:16.700Z,98486.81
2022-08-08T23:04:05.757Z,98487.66
2022-08-08T23:06:40.239Z,98494.47
2022-08-08T23:09:14.991Z,98478.28
2022-08-08T23:12:27.943Z,98490.19
2022-08-08T23:14:42.616Z,98481.44
2022-08-08T23:17:30.241Z,98483.78
2022-08-08T23:20:03.496Z,98483.47
2022-08-08T23:22:38.012Z,98486.03
2022-08-08T23:25:12.999Z,98482.44
2022-08-08T23:27:54.358Z,98485.63
2022-08-08T23:30:27.997Z,98487.25
2022-08-08T23:33:01.136Z,98489.81
2022-08-08T23:36:06.644Z,98480.88
2022-08-08T23:38:29.423Z,98480.88
2022-08-08T23:41:05.131Z,98484.91
2022-08-08T23:43:47.753Z,98479.19
2022-08-08T23:49:06.560Z,98487.50
2022-08-08T23:49:18.985Z,98487.69
2022-08-08T23:52:06.287Z,98481.56
2022-08-08T23:55:00.106Z,98471.56
2022-08-08T23:57:39.189Z,98483.66
